KBFD/BFD METAR and TAF weather

Enter ICAO airport designator
Station Type Date Time Source
KBFD METAR 2021/04/14 18:53 UTC NOAA

KBFD 141853Z AUTO VRB04G17KT 10SM BKN065 17/00 A2993 RMK AO2 SLP134 T01670000


Station Type Date Time Source
KBFD Decoded METAR 2021/04/14 18:53 UTC NOAA

BRADFORD REGIONAL AIRPORT, PA, United States (KBFD) 41-48N 078-38W 647M
Apr 14, 2021 - 02:53 PM EDT / 2021.04.14 1853 UTC
Wind: Variable at 5 MPH (4 KT) gusting to 20 MPH (17 KT):0
Visibility: 10 mile(s):0
Sky conditions: mostly cloudy
Temperature: 62.1 F (16.7 C)
Dew Point: 32.0 F (0.0 C)
Relative Humidity: 32%
Pressure (altimeter): 29.93 in. Hg (1013 hPa)
ob: KBFD 141853Z AUTO VRB04G17KT 10SM BKN065 17/00 A2993 RMK AO2 SLP134 T01670000
cycle: 19

Station Type Date Time Source
KBFD TAF 2021/04/14 18:15 UTC NOAA

KBFD 141802Z 1418/1518 20007G15KT P6SM SCT060
FM150000 31002KT P6SM BKN200
FM150800 29006KT 6SM BR VCSH BKN035 OVC050
FM151300 29009G17KT P6SM VCSH BKN023 OVC035

Example: see airport list